createdAt,value
2023-02-23T00:02:15.137Z,6.51
2023-02-23T00:05:17.692Z,6.45
2023-02-23T00:08:20.351Z,6.33
2023-02-23T00:11:22.766Z,6.26
2023-02-23T00:14:31.231Z,6.16
2023-02-23T00:17:36.617Z,6.14
2023-02-23T00:20:44.466Z,6.03
2023-02-23T00:23:52.401Z,5.85
2023-02-23T00:26:54.617Z,5.92
2023-02-23T00:29:56.906Z,5.92
2023-02-23T00:32:59.143Z,5.76
2023-02-23T00:36:13.514Z,5.73
2023-02-23T00:39:21.843Z,5.75
2023-02-23T00:42:24.848Z,5.66
2023-02-23T00:45:27.469Z,5.56
2023-02-23T00:48:29.723Z,5.51
2023-02-23T00:51:34.733Z,5.44
2023-02-23T00:54:37.057Z,5.45
2023-02-23T00:57:39.609Z,5.59
2023-02-23T01:00:42.319Z,5.61
2023-02-23T01:03:45.071Z,5.62
2023-02-23T01:06:47.284Z,5.52
2023-02-23T01:09:49.593Z,5.32
2023-02-23T01:12:52.980Z,5.28
2023-02-23T01:15:55.304Z,5.18
2023-02-23T01:19:03.697Z,5.11
2023-02-23T01:22:05.921Z,5.07
2023-02-23T01:25:08.642Z,4.96
2023-02-23T01:28:11.753Z,4.86
2023-02-23T01:31:15.791Z,4.63
2023-02-23T01:34:19.741Z,4.63
2023-02-23T01:37:21.971Z,4.56
2023-02-23T01:40:30.372Z,4.53
2023-02-23T01:43:33.272Z,4.35
2023-02-23T01:46:41.145Z,4.32
2023-02-23T01:49:43.443Z,4.18
2023-02-23T01:52:49.759Z,3.87
2023-02-23T01:55:55.772Z,3.91
2023-02-23T01:59:08.140Z,3.87
2023-02-23T02:02:10.728Z,3.80
2023-02-23T02:05:14.205Z,3.81
2023-02-23T02:08:19.113Z,3.91
2023-02-23T02:11:36.152Z,3.97
2023-02-23T02:14:38.803Z,4.08
2023-02-23T02:18:00.271Z,3.93
2023-02-23T02:21:11.917Z,4.07
2023-02-23T02:24:14.154Z,4.07
2023-02-23T02:27:52.778Z,4.07
2023-02-23T02:31:15.962Z,3.94
2023-02-23T02:34:23.955Z,3.98
2023-02-23T02:37:36.372Z,4.15
2023-02-23T02:41:03.992Z,4.09
2023-02-23T02:44:21.257Z,4.12
2023-02-23T02:47:28.343Z,4.18
2023-02-23T02:50:34.840Z,4.29
2023-02-23T02:53:46.376Z,4.34
2023-02-23T02:56:52.105Z,4.21
2023-02-23T03:00:16.549Z,4.19
2023-02-23T03:03:55.345Z,4.09
2023-02-23T03:07:34.362Z,4.05
2023-02-23T03:11:02.648Z,3.94
2023-02-23T03:14:42.197Z,3.74
2023-02-23T03:18:07.489Z,3.43
2023-02-23T03:21:37.961Z,3.20
2023-02-23T03:25:13.778Z,3.08
2023-02-23T03:28:45.721Z,3.04
2023-02-23T03:32:10.034Z,2.95
2023-02-23T03:35:44.064Z,2.71
2023-02-23T03:39:15.052Z,2.62
2023-02-23T03:42:48.751Z,2.38
2023-02-23T03:46:10.975Z,2.22
2023-02-23T03:49:40.351Z,1.89
2023-02-23T03:53:07.625Z,1.51
2023-02-23T03:56:30.390Z,1.26
2023-02-23T04:00:01.791Z,1.24
2023-02-23T04:03:36.578Z,1.26
2023-02-23T04:07:02.108Z,1.42
2023-02-23T04:10:24.685Z,1.56
2023-02-23T04:13:30.106Z,1.48
2023-02-23T04:16:33.346Z,1.63
2023-02-23T04:19:35.709Z,1.65
2023-02-23T04:22:38.786Z,1.75
2023-02-23T04:25:40.955Z,1.78
2023-02-23T04:28:43.629Z,1.72
2023-02-23T04:31:46.186Z,1.78
2023-02-23T04:34:48.759Z,1.78
2023-02-23T04:37:51.053Z,1.93
2023-02-23T04:40:53.315Z,1.96
2023-02-23T04:43:55.480Z,1.92
2023-02-23T04:46:58.186Z,1.85
2023-02-23T04:50:00.406Z,1.83
2023-02-23T04:53:02.682Z,1.89
2023-02-23T04:56:05.200Z,1.76
2023-02-23T04:59:07.630Z,1.81
2023-02-23T05:02:10.269Z,1.92
2023-02-23T05:05:13.122Z,1.79
2023-02-23T05:08:15.388Z,1.51
2023-02-23T05:11:18.237Z,1.34
2023-02-23T05:14:21.220Z,1.32
2023-02-23T05:17:23.788Z,1.34
2023-02-23T05:20:26.160Z,1.37
2023-02-23T05:23:28.491Z,1.34
2023-02-23T05:26:30.842Z,1.41
2023-02-23T05:29:33.356Z,1.28
2023-02-23T05:32:35.776Z,1.21
2023-02-23T05:35:40.811Z,1.32
2023-02-23T05:38:45.821Z,1.40
2023-02-23T05:41:48.135Z,1.32
2023-02-23T05:44:50.318Z,1.32
2023-02-23T05:47:59.103Z,1.34
2023-02-23T05:51:06.444Z,1.38
2023-02-23T05:54:09.505Z,1.54
2023-02-23T05:57:11.655Z,1.58
2023-02-23T06:00:14.228Z,1.73
2023-02-23T06:03:16.531Z,1.82
2023-02-23T06:06:18.994Z,1.93
2023-02-23T06:09:21.210Z,2.00
2023-02-23T06:12:23.932Z,1.90
2023-02-23T06:15:26.567Z,2.27
2023-02-23T06:18:30.069Z,2.51
2023-02-23T06:21:32.488Z,2.98
2023-02-23T06:24:34.821Z,3.29
2023-02-23T06:27:37.023Z,3.30
2023-02-23T06:30:40.192Z,3.43
2023-02-23T06:33:42.446Z,3.44
2023-02-23T06:36:45.014Z,3.90
2023-02-23T06:39:47.337Z,4.17
2023-02-23T06:42:49.772Z,4.38
2023-02-23T06:45:52.073Z,4.66
2023-02-23T06:48:57.484Z,5.01
2023-02-23T06:52:00.228Z,5.11
2023-02-23T06:55:04.646Z,5.27
2023-02-23T06:58:17.950Z,5.44
2023-02-23T07:01:21.314Z,5.62
2023-02-23T07:04:24.061Z,5.62
2023-02-23T07:07:26.551Z,5.98
2023-02-23T07:10:31.715Z,5.96
2023-02-23T07:13:34.230Z,6.14
2023-02-23T07:16:36.920Z,6.40
2023-02-23T07:19:40.658Z,6.50
2023-02-23T07:22:45.905Z,6.67
2023-02-23T07:25:53.442Z,6.81
2023-02-23T07:28:58.603Z,7.02
2023-02-23T07:32:00.996Z,7.11
2023-02-23T07:35:06.463Z,7.29
2023-02-23T07:38:09.212Z,7.56
2023-02-23T07:41:21.453Z,7.78
2023-02-23T07:44:24.413Z,8.14
2023-02-23T07:47:31.254Z,8.44
2023-02-23T07:50:33.897Z,8.55
2023-02-23T07:53:36.209Z,8.90
2023-02-23T07:56:43.529Z,8.75
2023-02-23T07:59:49.940Z,8.90
2023-02-23T08:02:56.387Z,9.24
2023-02-23T08:06:00.998Z,9.63
2023-02-23T08:09:06.102Z,9.82
2023-02-23T08:12:09.615Z,9.96
2023-02-23T08:15:13.626Z,9.90
2023-02-23T08:18:18.574Z,10.16
2023-02-23T08:21:21.117Z,10.32
2023-02-23T08:24:28.347Z,10.44
2023-02-23T08:27:34.643Z,10.64
2023-02-23T08:30:40.748Z,10.77
2023-02-23T08:33:50.775Z,10.77
2023-02-23T08:36:54.122Z,11.01
2023-02-23T08:39:57.454Z,10.98
2023-02-23T08:42:59.662Z,10.88
2023-02-23T08:46:05.638Z,10.90
2023-02-23T08:49:11.536Z,11.02
2023-02-23T08:52:13.951Z,11.40
2023-02-23T08:55:18.590Z,11.60
2023-02-23T08:58:24.301Z,11.63
2023-02-23T09:01:26.658Z,11.52
2023-02-23T09:04:32.739Z,11.29
2023-02-23T09:07:36.965Z,11.46
2023-02-23T09:10:40.832Z,11.58
2023-02-23T09:13:46.297Z,11.90
2023-02-23T09:16:49.718Z,12.31
2023-02-23T09:20:04.563Z,12.11
2023-02-23T09:23:09.201Z,12.41
2023-02-23T09:26:11.697Z,12.16
2023-02-23T09:29:19.645Z,12.28
2023-02-23T09:32:22.759Z,12.65
2023-02-23T09:35:28.156Z,12.41
2023-02-23T09:38:32.126Z,12.66
2023-02-23T09:42:09.563Z,13.02
2023-02-23T09:45:40.102Z,13.10
2023-02-23T09:48:44.700Z,13.48
2023-02-23T09:51:54.357Z,13.86
2023-02-23T09:55:01.342Z,14.22
2023-02-23T09:58:14.598Z,14.98
2023-02-23T10:01:34.488Z,15.72
2023-02-23T10:04:46.943Z,17.09
2023-02-23T10:08:03.567Z,16.56
2023-02-23T10:11:30.068Z,15.00
2023-02-23T10:14:47.201Z,14.80
2023-02-23T10:17:49.889Z,15.39
2023-02-23T10:21:18.897Z,14.87
2023-02-23T10:24:41.846Z,14.46
2023-02-23T10:27:51.467Z,15.00
2023-02-23T10:30:55.804Z,14.53
2023-02-23T10:34:02.945Z,14.75
2023-02-23T10:37:07.166Z,14.75
2023-02-23T10:40:33.077Z,14.76
2023-02-23T10:43:35.452Z,14.73
2023-02-23T10:46:44.812Z,15.38
2023-02-23T10:49:54.597Z,15.03
2023-02-23T10:53:22.462Z,15.00
2023-02-23T10:56:27.393Z,15.11
2023-02-23T10:59:31.396Z,15.27
2023-02-23T11:02:36.490Z,15.21
2023-02-23T11:05:59.530Z,15.35
2023-02-23T11:09:44.482Z,16.03
2023-02-23T11:12:52.451Z,15.23
2023-02-23T11:16:07.628Z,15.38
2023-02-23T11:19:38.189Z,15.23
2023-02-23T11:22:44.472Z,15.14
2023-02-23T11:25:49.908Z,15.08
2023-02-23T11:28:55.817Z,15.70
2023-02-23T11:31:58.828Z,15.70
2023-02-23T11:35:27.874Z,15.75
2023-02-23T11:38:32.503Z,15.79
2023-02-23T11:41:37.316Z,16.24
2023-02-23T11:44:39.824Z,16.41
2023-02-23T11:47:49.648Z,16.54
2023-02-23T11:50:54.274Z,16.79
2023-02-23T11:54:00.005Z,17.36
2023-02-23T11:57:03.012Z,17.89
2023-02-23T12:00:23.342Z,17.59
2023-02-23T12:03:32.127Z,17.52
2023-02-23T12:06:41.047Z,18.85
2023-02-23T12:09:51.615Z,19.60
2023-02-23T12:13:31.919Z,19.02
2023-02-23T12:16:47.764Z,18.95
2023-02-23T12:20:05.353Z,20.45
2023-02-23T12:23:15.778Z,19.35
2023-02-23T12:26:24.746Z,18.96
2023-02-23T12:29:44.290Z,17.50
2023-02-23T12:32:54.602Z,17.42
2023-02-23T12:36:02.279Z,17.09
2023-02-23T12:39:22.267Z,16.77
2023-02-23T12:42:54.334Z,16.99
2023-02-23T12:46:08.568Z,17.49
2023-02-23T12:49:22.174Z,17.81
2023-02-23T12:52:38.745Z,18.05
2023-02-23T12:56:18.058Z,17.71
2023-02-23T12:59:20.311Z,17.81
2023-02-23T13:02:31.572Z,18.15
2023-02-23T13:05:41.455Z,17.28
2023-02-23T13:09:04.937Z,16.95
2023-02-23T13:12:12.873Z,17.77
2023-02-23T13:15:31.195Z,18.30
2023-02-23T13:19:30.174Z,19.75
2023-02-23T13:22:48.868Z,19.85
2023-02-23T13:26:28.533Z,19.19
2023-02-23T13:29:34.199Z,19.35
2023-02-23T13:32:38.746Z,20.35
2023-02-23T13:35:42.339Z,19.35
2023-02-23T13:38:53.239Z,19.94
2023-02-23T13:42:32.808Z,23.22
2023-02-23T13:45:49.163Z,23.93
2023-02-23T13:49:02.095Z,22.39
2023-02-23T13:52:23.295Z,23.05
2023-02-23T13:55:39.968Z,20.60
2023-02-23T13:58:57.648Z,18.76
2023-02-23T14:02:02.833Z,19.55
2023-02-23T14:05:22.758Z,19.74
2023-02-23T14:08:38.635Z,19.35
2023-02-23T14:11:47.581Z,18.48
2023-02-23T14:14:49.927Z,17.45
2023-02-23T14:18:13.984Z,17.35
2023-02-23T14:21:22.046Z,19.33
2023-02-23T14:24:27.821Z,21.14
2023-02-23T14:27:41.582Z,21.51
2023-02-23T14:31:13.249Z,20.40
2023-02-23T14:34:23.036Z,19.77
2023-02-23T14:37:36.331Z,18.12
2023-02-23T14:40:43.143Z,17.46
2023-02-23T14:43:45.679Z,16.92
2023-02-23T14:47:01.526Z,18.56
2023-02-23T14:50:13.592Z,18.76
2023-02-23T14:53:24.361Z,17.08
2023-02-23T14:56:38.715Z,17.12
2023-02-23T14:59:53.254Z,16.33
2023-02-23T15:02:59.670Z,16.48
2023-02-23T15:06:02.093Z,16.23
2023-02-23T15:09:04.993Z,15.68
2023-02-23T15:12:18.383Z,15.30
2023-02-23T15:15:24.312Z,15.28
2023-02-23T15:18:47.963Z,14.94
2023-02-23T15:21:52.662Z,14.62
2023-02-23T15:24:59.320Z,14.43
2023-02-23T15:28:25.224Z,14.25
2023-02-23T15:31:30.774Z,14.01
2023-02-23T15:34:33.231Z,13.95
2023-02-23T15:37:55.323Z,13.89
2023-02-23T15:41:15.427Z,13.79
2023-02-23T15:44:20.753Z,13.65
2023-02-23T15:47:28.594Z,13.65
2023-02-23T15:50:37.297Z,13.58
2023-02-23T15:53:41.390Z,13.53
2023-02-23T15:56:47.034Z,13.37
2023-02-23T15:59:49.737Z,13.36
2023-02-23T16:02:52.522Z,13.27
2023-02-23T16:06:21.030Z,13.12
2023-02-23T16:09:28.697Z,13.03
2023-02-23T16:12:38.450Z,12.92
2023-02-23T16:15:41.665Z,12.83
2023-02-23T16:18:45.280Z,12.76
2023-02-23T16:21:53.953Z,12.69
2023-02-23T16:25:02.719Z,12.56
2023-02-23T16:28:16.013Z,12.54
2023-02-23T16:31:25.940Z,12.42
2023-02-23T16:34:44.636Z,12.37
2023-02-23T16:38:12.716Z,12.27
2023-02-23T16:41:22.196Z,12.10
2023-02-23T16:44:41.408Z,11.95
2023-02-23T16:47:49.686Z,11.76
2023-02-23T16:50:52.114Z,11.67
2023-02-23T16:53:54.335Z,11.39
2023-02-23T16:56:56.722Z,11.25
2023-02-23T17:00:00.517Z,11.16
2023-02-23T17:03:05.703Z,11.01
2023-02-23T17:06:08.376Z,10.98
2023-02-23T17:09:12.734Z,11.05
2023-02-23T17:12:21.737Z,11.05
2023-02-23T17:15:29.265Z,11.07
2023-02-23T17:18:34.391Z,11.00
2023-02-23T17:21:36.594Z,11.00
2023-02-23T17:24:40.166Z,10.95
2023-02-23T17:27:42.475Z,10.97
2023-02-23T17:30:45.316Z,10.95
2023-02-23T17:33:47.848Z,10.97
2023-02-23T17:36:50.184Z,10.95
2023-02-23T17:39:52.345Z,10.87
2023-02-23T17:42:56.867Z,10.82
2023-02-23T17:45:59.188Z,10.80
2023-02-23T17:49:01.903Z,10.84
2023-02-23T17:52:04.192Z,10.82
2023-02-23T17:55:07.238Z,10.87
2023-02-23T17:58:09.464Z,10.85
2023-02-23T18:01:11.795Z,10.81
2023-02-23T18:04:14.088Z,10.84
2023-02-23T18:07:17.731Z,10.80
2023-02-23T18:10:20.077Z,10.87
2023-02-23T18:13:23.129Z,10.82
2023-02-23T18:16:25.451Z,10.88
2023-02-23T18:19:28.218Z,10.88
2023-02-23T18:22:30.415Z,10.97
2023-02-23T18:25:32.792Z,10.97
2023-02-23T18:28:35.296Z,11.05
2023-02-23T18:31:37.816Z,11.01
2023-02-23T18:34:40.213Z,11.04
2023-02-23T18:37:42.543Z,11.04
2023-02-23T18:40:45.339Z,11.04
2023-02-23T18:43:47.864Z,11.04
2023-02-23T18:46:50.290Z,11.01
2023-02-23T18:49:52.896Z,11.02
2023-02-23T18:52:58.084Z,11.08
2023-02-23T18:56:08.719Z,11.07
2023-02-23T18:59:11.673Z,11.12
2023-02-23T19:02:13.913Z,11.18
2023-02-23T19:05:19.543Z,11.18
2023-02-23T19:08:23.047Z,11.33
2023-02-23T19:11:28.190Z,11.39
2023-02-23T19:14:48.364Z,11.28
2023-02-23T19:17:51.306Z,11.12
2023-02-23T19:20:55.465Z,11.04
2023-02-23T19:23:59.532Z,10.88
2023-02-23T19:27:01.778Z,10.95
2023-02-23T19:30:09.971Z,10.78
2023-02-23T19:33:13.036Z,10.80
2023-02-23T19:36:18.298Z,10.63
2023-02-23T19:39:20.549Z,10.60
2023-02-23T19:42:22.799Z,10.51
2023-02-23T19:45:26.013Z,10.47
2023-02-23T19:48:29.003Z,10.40
2023-02-23T19:51:31.349Z,10.40
2023-02-23T19:54:37.804Z,10.47
2023-02-23T19:57:40.414Z,10.44
2023-02-23T20:00:42.596Z,10.39
2023-02-23T20:03:55.192Z,10.33
2023-02-23T20:06:57.535Z,10.20
2023-02-23T20:09:59.785Z,10.17
2023-02-23T20:13:02.270Z,10.12
2023-02-23T20:16:10.301Z,10.03
2023-02-23T20:19:12.506Z,9.98
2023-02-23T20:22:14.732Z,9.92
2023-02-23T20:25:17.789Z,9.92
2023-02-23T20:28:20.067Z,9.86
2023-02-23T20:31:26.497Z,9.90
2023-02-23T20:34:29.676Z,9.83
2023-02-23T20:37:31.967Z,9.81
2023-02-23T20:40:34.580Z,9.81
2023-02-23T20:43:38.021Z,9.79
2023-02-23T20:46:41.452Z,9.78
2023-02-23T20:49:43.637Z,9.72
2023-02-23T20:52:46.117Z,9.69
2023-02-23T20:55:48.926Z,9.65
2023-02-23T20:58:54.430Z,9.68
2023-02-23T21:01:57.048Z,9.63
2023-02-23T21:04:59.283Z,9.63
2023-02-23T21:08:04.657Z,9.69
2023-02-23T21:11:08.884Z,9.68
2023-02-23T21:14:12.027Z,9.63
2023-02-23T21:17:14.377Z,9.65
2023-02-23T21:20:18.070Z,9.62
2023-02-23T21:23:21.628Z,9.68
2023-02-23T21:26:23.816Z,9.63
2023-02-23T21:29:26.091Z,9.62
2023-02-23T21:32:31.116Z,9.61
2023-02-23T21:35:35.279Z,9.59
2023-02-23T21:38:40.112Z,9.54
2023-02-23T21:41:42.354Z,9.51
2023-02-23T21:44:45.762Z,9.51
2023-02-23T21:47:48.788Z,9.45
2023-02-23T21:50:50.984Z,9.44
2023-02-23T21:53:58.010Z,9.44
2023-02-23T21:57:00.196Z,9.38
2023-02-23T22:00:02.443Z,9.37
2023-02-23T22:03:14.820Z,9.38
2023-02-23T22:06:19.263Z,9.45
2023-02-23T22:09:21.472Z,9.49
2023-02-23T22:12:23.687Z,9.47
2023-02-23T22:15:28.912Z,9.63
2023-02-23T22:18:31.925Z,9.71
2023-02-23T22:21:39.332Z,9.59
2023-02-23T22:24:41.607Z,9.74
2023-02-23T22:27:44.338Z,9.72
2023-02-23T22:30:50.861Z,9.63
2023-02-23T22:33:53.064Z,9.55
2023-02-23T22:36:55.302Z,9.52
2023-02-23T22:40:16.804Z,9.47
2023-02-23T22:43:22.093Z,9.44
2023-02-23T22:46:25.346Z,9.42
2023-02-23T22:49:27.757Z,9.38
2023-02-23T22:52:30.037Z,9.31
2023-02-23T22:55:32.257Z,9.35
2023-02-23T22:58:36.226Z,9.31
2023-02-23T23:01:39.367Z,9.30
2023-02-23T23:04:41.743Z,9.32
2023-02-23T23:07:46.819Z,9.32
2023-02-23T23:10:50.189Z,9.35
2023-02-23T23:14:01.882Z,9.41
2023-02-23T23:17:04.161Z,9.32
2023-02-23T23:20:12.083Z,9.48
2023-02-23T23:23:14.972Z,9.55
2023-02-23T23:26:20.205Z,9.42
2023-02-23T23:29:23.693Z,9.34
2023-02-23T23:32:27.806Z,9.45
2023-02-23T23:35:30.187Z,9.26
2023-02-23T23:38:33.496Z,9.23
2023-02-23T23:41:36.326Z,9.16
2023-02-23T23:44:38.800Z,9.18
2023-02-23T23:47:41.040Z,9.10
2023-02-23T23:50:43.389Z,9.08
2023-02-23T23:53:45.554Z,9.07
2023-02-23T23:56:48.017Z,9.00
2023-02-23T23:59:51.344Z,8.96
